Time;durP1;ratioP1;P1;durP2;ratioP2;P2;SDS_P1;SDS_P2;PMS_P1;PMS_P2;Temp;Humidity;BMP_temperature;BMP_pressure;BME280_temperature;BME280_humidity;BME280_pressure;Samples;Min_cycle;Max_cycle;Signal;HPM_P1;HPM_P2
2023/02/14 00:01:27;;;;;;;38.72;24.35;;;;;;;5.53;100.00;103713.25;10071462;28;20795;-64
2023/02/14 00:06:24;;;;;;;44.83;28.05;;;;;;;5.41;100.00;103715.75;10063938;28;20055;-64
2023/02/14 00:11:21;;;;;;;39.70;24.58;;;;;;;5.38;100.00;103705.31;10080505;28;20043;-64
2023/02/14 00:16:18;;;;;;;45.17;25.02;;;;;;;5.29;100.00;103718.22;10077157;28;20510;-64
2023/02/14 00:21:14;;;;;;;41.72;25.08;;;;;;;5.40;100.00;103716.78;10085457;28;20053;-65
2023/02/14 00:26:14;;;;;;;41.67;25.20;;;;;;;5.41;100.00;103727.44;10075426;28;20055;-65
2023/02/14 00:31:11;;;;;;;41.65;25.75;;;;;;;5.38;100.00;103725.13;10084920;28;20070;-65
2023/02/14 00:36:09;;;;;;;42.03;25.17;;;;;;;5.40;100.00;103722.22;10084134;28;20047;-66
2023/02/14 00:41:06;;;;;;;40.25;23.58;;;;;;;5.37;100.00;103719.94;10077111;28;20449;-65
2023/02/14 00:46:02;;;;;;;40.55;23.02;;;;;;;5.40;100.00;103714.06;10086377;28;20097;-66
2023/02/14 00:50:59;;;;;;;39.45;24.17;;;;;;;5.38;100.00;103714.25;10079383;28;20069;-65
2023/02/14 00:55:55;;;;;;;39.42;24.65;;;;;;;5.43;100.00;103719.06;10063634;28;20074;-65
2023/02/14 01:00:52;;;;;;;41.15;24.77;;;;;;;5.39;100.00;103712.41;10077809;28;20487;-64
2023/02/14 01:05:49;;;;;;;41.83;25.08;;;;;;;5.38;100.00;103710.72;10085779;28;20086;-65
2023/02/14 01:10:46;;;;;;;42.85;24.95;;;;;;;5.29;100.00;103701.97;10078415;28;20074;-64
2023/02/14 01:15:48;;;;;;;41.63;25.00;;;;;;;5.27;100.00;103699.47;10075789;28;20568;-65
2023/02/14 01:20:44;;;;;;;39.10;22.77;;;;;;;5.30;100.00;103697.38;10082343;28;20054;-65
2023/02/14 01:25:41;;;;;;;38.17;23.58;;;;;;;5.27;100.00;103699.47;10078830;28;20050;-64
2023/02/14 01:30:37;;;;;;;42.08;25.30;;;;;;;5.23;100.00;103692.78;10074322;28;20146;-64
2023/02/14 01:35:37;;;;;;;41.25;24.50;;;;;;;5.21;100.00;103692.16;10085380;28;20051;-64
2023/02/14 01:40:34;;;;;;;43.47;23.88;;;;;;;5.13;100.00;103689.66;10071513;28;20051;-65
2023/02/14 01:45:31;;;;;;;42.28;25.80;;;;;;;5.22;100.00;103695.69;10070734;28;20126;-65
2023/02/14 01:50:33;;;;;;;41.75;23.50;;;;;;;5.15;100.00;103684.88;10078083;28;20046;-65
2023/02/14 01:55:32;;;;;;;37.67;22.63;;;;;;;5.12;100.00;103676.31;10080777;28;20048;-65
2023/02/14 02:05:50;;;;;;;35.58;23.33;;;;;;;5.15;100.00;103668.59;10067838;28;20527;-65
2023/02/14 02:10:46;;;;;;;;;;;;;;;5.07;100.00;103666.09;10080569;28;20134;-64
2023/02/14 02:16:01;;;;;;;42.70;25.08;;;;;;;5.07;100.00;103671.50;10070860;28;19929;-64
2023/02/14 02:21:22;;;;;;;40.92;25.40;;;;;;;5.07;100.00;103672.34;10082039;28;20067;-65
2023/02/14 02:26:37;;;;;;;40.85;25.23;;;;;;;4.88;100.00;103666.91;10094865;28;20057;-64
2023/02/14 02:31:55;;;;;;;45.20;25.63;;;;;;;4.85;100.00;103658.16;10079099;28;21035;-64
2023/02/14 02:36:58;;;;;;;42.45;25.67;;;;;;;4.96;100.00;103666.69;10086702;28;20043;-64
2023/02/14 02:42:32;;;;;;;40.50;24.67;;;;;;;4.93;100.00;103654.41;10077126;28;20049;-65
2023/02/14 02:47:50;;;;;;;41.88;25.42;;;;;;;4.97;100.00;103652.13;10079765;28;20096;-64
2023/02/14 02:53:06;;;;;;;39.03;25.05;;;;;;;4.90;100.00;103651.25;10094332;28;20059;-64
2023/02/14 02:58:03;;;;;;;42.90;25.17;;;;;;;4.84;100.00;103647.50;10090405;28;20098;-64
2023/02/14 03:08:14;;;;;;;43.42;24.95;;;;;;;4.78;100.00;103646.47;10086503;28;20141;-64
2023/02/14 03:13:43;;;;;;;40.83;26.10;;;;;;;4.84;100.00;103651.03;10087699;28;20444;-64
2023/02/14 03:19:11;;;;;;;48.38;27.25;;;;;;;4.81;100.00;103648.75;10088064;28;20137;-63
2023/02/14 03:24:40;;;;;;;47.42;27.63;;;;;;;4.74;100.00;103642.50;10083850;28;20134;-66
2023/02/14 03:29:39;;;;;;;42.00;26.58;;;;;;;4.75;100.00;103652.28;10087007;28;20074;-66
2023/02/14 03:34:53;;;;;;;42.15;25.75;;;;;;;4.75;100.00;103646.03;10078147;28;20063;-66
2023/02/14 03:40:07;;;;;;;49.70;28.80;;;;;;;4.69;100.00;103641.44;10087574;28;20047;-66
2023/02/14 03:45:08;;;;;;;50.30;30.27;;;;;;;4.67;100.00;103638.94;10082549;28;20504;-66
2023/02/14 03:50:13;;;;;;;45.67;27.20;;;;;;;4.64;100.00;103639.34;10085699;28;20055;-66
2023/02/14 03:55:13;;;;;;;49.45;27.38;;;;;;;4.57;100.00;103628.50;10085188;28;20047;-66
2023/02/14 04:00:11;;;;;;;46.00;27.25;;;;;;;4.57;100.00;103633.06;10088824;28;20075;-66
2023/02/14 04:05:14;;;;;;;52.22;29.27;;;;;;;4.55;100.00;103629.72;10079506;28;20051;-65
2023/02/14 04:10:11;;;;;;;43.97;26.75;;;;;;;4.54;100.00;103622.66;10079169;28;20074;-65
2023/02/14 04:15:07;;;;;;;48.75;28.35;;;;;;;4.53;100.00;103619.13;10085806;28;20138;-65
2023/02/14 04:20:04;;;;;;;48.80;30.63;;;;;;;4.51;100.00;103613.06;10074859;28;20070;-65
2023/02/14 04:25:01;;;;;;;50.10;29.67;;;;;;;4.56;100.00;103626.00;10074116;28;20137;-65
2023/02/14 04:29:57;;;;;;;45.70;28.08;;;;;;;4.54;100.00;103620.78;10053044;28;20099;-65
2023/02/14 04:34:54;;;;;;;48.92;28.42;;;;;;;4.58;100.00;103610.38;10047304;28;20051;-66
2023/02/14 04:39:50;;;;;;;50.53;29.17;;;;;;;4.59;100.00;103612.03;10052313;28;20039;-66
2023/02/14 04:44:47;;;;;;;46.88;29.23;;;;;;;4.62;100.00;103615.19;10051323;28;20549;-67
2023/02/14 04:49:43;;;;;;;49.55;28.63;;;;;;;4.62;100.00;103603.50;10067926;28;20572;-64
2023/02/14 04:54:40;;;;;;;48.53;29.30;;;;;;;4.70;100.00;103606.00;10063432;28;20043;-66
2023/02/14 04:59:37;;;;;;;44.70;28.50;;;;;;;4.66;100.00;103607.44;10047540;28;20059;-67
2023/02/14 05:04:33;;;;;;;49.97;31.02;;;;;;;4.72;100.00;103603.91;10073756;28;20047;-67
2023/02/14 05:09:29;;;;;;;54.17;32.65;;;;;;;4.68;100.00;103602.66;10072696;28;20066;-67
2023/02/14 05:14:26;;;;;;;45.95;28.45;;;;;;;4.75;100.00;103608.91;10083470;28;20075;-67
2023/02/14 05:19:23;;;;;;;47.90;29.15;;;;;;;4.84;100.00;103598.72;10061656;28;20142;-67
2023/02/14 05:24:19;;;;;;;55.05;30.90;;;;;;;4.80;100.00;103601.03;10061522;28;20059;-67
2023/02/14 05:29:16;;;;;;;48.75;29.65;;;;;;;4.75;100.00;103598.06;10067244;28;20075;-67
2023/02/14 05:34:13;;;;;;;49.38;29.52;;;;;;;4.77;100.00;103601.41;10086028;28;20524;-66
2023/02/14 05:39:13;;;;;;;46.35;29.45;;;;;;;4.84;100.00;103607.66;10071610;28;20169;-67
2023/02/14 05:44:09;;;;;;;50.13;29.45;;;;;;;4.80;100.00;103595.59;10057186;28;20102;-67
2023/02/14 05:49:06;;;;;;;46.78;29.98;;;;;;;4.70;100.00;103589.72;10060147;28;20078;-67
2023/02/14 05:54:02;;;;;;;52.42;31.80;;;;;;;4.67;100.00;103589.34;10065912;28;20074;-67
2023/02/14 05:58:59;;;;;;;46.10;29.00;;;;;;;4.72;100.00;103594.97;10081729;28;20141;-67
2023/02/14 06:03:55;;;;;;;47.05;29.85;;;;;;;4.72;100.00;103587.66;10076355;28;20035;-67
2023/02/14 06:08:52;;;;;;;50.00;29.48;;;;;;;4.71;100.00;103583.28;10074933;28;20487;-67
2023/02/14 06:13:48;;;;;;;48.67;32.13;;;;;;;4.74;100.00;103585.56;10074952;28;20051;-67
2023/02/14 06:18:44;;;;;;;46.38;30.73;;;;;;;4.75;100.00;103587.22;10062880;28;20530;-67
2023/02/14 06:23:41;;;;;;;51.28;33.40;;;;;;;4.74;100.00;103591.00;10073536;28;20099;-66
2023/02/14 06:28:38;;;;;;;49.60;33.38;;;;;;;4.69;100.00;103604.34;10071595;28;20080;-67
2023/02/14 06:33:34;;;;;;;50.63;33.33;;;;;;;4.66;100.00;103599.31;10073406;28;20576;-67
2023/02/14 06:38:31;;;;;;;52.47;35.53;;;;;;;4.73;100.00;103605.56;10067760;28;20086;-68
2023/02/14 06:43:27;;;;;;;62.42;33.50;;;;;;;4.72;100.00;103598.50;10067887;28;20485;-68
2023/02/14 06:48:24;;;;;;;52.75;31.45;;;;;;;4.79;100.00;103609.34;10065762;28;20059;-68
2023/02/14 06:53:21;;;;;;;51.38;32.63;;;;;;;4.78;100.00;103608.53;10064788;28;20087;-67
2023/02/14 06:58:17;;;;;;;41.95;29.15;;;;;;;4.84;100.00;103612.25;10071628;28;20065;-67
2023/02/14 07:03:14;;;;;;;44.20;29.90;;;;;;;4.83;100.00;103616.84;10082112;28;20126;-67
2023/02/14 07:08:11;;;;;;;47.85;30.77;;;;;;;4.95;100.00;103613.53;10070903;28;20078;-68
2023/02/14 07:13:07;;;;;;;40.92;28.65;;;;;;;4.97;100.00;103608.72;10067161;28;20313;-68
2023/02/14 07:18:07;;;;;;;40.00;27.75;;;;;;;4.89;100.00;103592.66;10072885;28;20486;-67
2023/02/14 07:23:03;;;;;;;50.22;29.65;;;;;;;4.87;100.00;103602.88;10069162;28;20044;-67
2023/02/14 07:28:01;;;;;;;45.53;27.30;;;;;;;5.05;100.00;103597.66;10066675;28;20043;-68
2023/02/14 07:32:58;;;;;;;47.42;28.63;;;;;;;5.04;100.00;103596.00;10067265;28;20278;-67
2023/02/14 07:37:54;;;;;;;43.05;27.60;;;;;;;5.07;100.00;103588.25;10070257;28;20049;-68
2023/02/14 07:42:53;;;;;;;43.50;28.58;;;;;;;5.09;100.00;103596.19;10072394;28;20126;-68
2023/02/14 07:47:51;;;;;;;37.58;25.45;;;;;;;5.26;100.00;103604.72;10071770;28;20256;-68
2023/02/14 07:52:48;;;;;;;38.83;25.75;;;;;;;5.35;100.00;103597.19;10069117;28;20536;-68
2023/02/14 07:57:47;;;;;;;39.05;23.60;;;;;;;5.39;100.00;103585.72;10062781;28;20071;-68
2023/02/14 08:02:44;;;;;;;36.50;25.30;;;;;;;5.47;100.00;103587.34;10068761;28;20045;-68
2023/02/14 08:07:41;;;;;;;40.85;26.73;;;;;;;5.52;100.00;103582.09;10069304;28;20051;-68
2023/02/14 08:17:55;;;;;;;36.20;23.55;;;;;;;5.74;100.00;103587.28;10072910;28;20070;-67
2023/02/14 08:22:51;;;;;;;36.63;24.00;;;;;;;5.67;100.00;103573.72;10063997;28;20135;-68
2023/02/14 08:27:48;;;;;;;36.13;24.10;;;;;;;5.54;100.00;103574.59;10074638;28;20074;-68
2023/02/14 08:32:44;;;;;;;34.47;24.17;;;;;;;5.39;100.00;103569.44;10068612;28;20075;-68
2023/02/14 08:37:41;;;;;;;39.53;26.73;;;;;;;5.18;100.00;103575.94;10065704;28;20066;-68
2023/02/14 08:42:37;;;;;;;37.67;25.38;;;;;;;5.25;100.00;103582.19;10068324;28;20126;-68
2023/02/14 08:47:34;;;;;;;36.72;25.20;;;;;;;5.30;100.00;103586.16;10061439;28;20109;-68
2023/02/14 08:52:31;;;;;;;35.78;24.45;;;;;;;5.32;100.00;103582.19;10062520;28;20047;-67
2023/02/14 08:57:27;;;;;;;30.25;22.20;;;;;;;5.36;100.00;103577.16;10065440;28;20570;-67
2023/02/14 09:02:24;;;;;;;33.55;24.00;;;;;;;5.49;100.00;103582.53;10066117;28;20505;-67
2023/02/14 09:07:20;;;;;;;35.90;23.60;;;;;;;5.60;100.00;103590.03;10064678;28;20079;-67
2023/02/14 09:12:17;;;;;;;35.72;24.77;;;;;;;5.61;100.00;103578.13;10066868;28;20071;-68
2023/02/14 09:17:15;;;;;;;35.10;23.90;;;;;;;5.79;100.00;103571.16;10067778;28;20736;-68
2023/02/14 09:22:11;;;;;;;35.15;22.40;;;;;;;5.94;100.00;103569.06;10066899;28;20075;-67
2023/02/14 09:27:08;;;;;;;34.30;23.08;;;;;;;6.04;100.00;103558.53;10069597;28;20493;-67
2023/02/14 09:32:04;;;;;;;32.85;23.15;;;;;;;6.27;100.00;103562.59;10067371;28;20134;-67
2023/02/14 09:42:37;;;;;;;31.30;20.48;;;;;;;6.74;100.00;103549.47;10067073;28;20054;-67
2023/02/14 09:47:56;;;;;;;28.20;19.70;;;;;;;7.17;100.00;103535.00;10066079;28;20086;-67
2023/02/14 09:52:59;;;;;;;27.35;19.45;;;;;;;7.19;100.00;103538.34;10063549;28;20048;-67
2023/02/14 09:58:18;;;;;;;28.75;19.83;;;;;;;7.23;100.00;103538.75;10068259;28;20049;-67
2023/02/14 10:03:30;;;;;;;31.48;21.40;;;;;;;7.21;100.00;103519.91;10086733;28;20039;-68
2023/02/14 10:08:45;;;;;;;28.95;20.70;;;;;;;7.58;100.00;103531.59;10065263;28;20056;-68
2023/02/14 10:13:47;;;;;;;28.08;20.20;;;;;;;8.10;100.00;103522.09;10063847;28;20044;-68
2023/02/14 10:19:01;;;;;;;24.52;18.58;;;;;;;7.97;100.00;103525.88;10056218;28;20039;-68
2023/02/14 10:24:14;;;;;;;28.67;19.95;;;;;;;8.44;100.00;103523.28;10067474;28;20493;-68
2023/02/14 10:29:16;;;;;;;24.70;17.55;;;;;;;8.63;100.00;103516.69;10062335;28;20043;-68
2023/02/14 10:35:01;;;;;;;27.40;19.50;;;;;;;8.64;100.00;103514.78;10069120;28;20193;-68
2023/02/14 10:40:20;;;;;;;26.67;18.50;;;;;;;8.87;100.00;103513.97;10003064;29;20062;-68
2023/02/14 10:45:34;;;;;;;26.23;18.63;;;;;;;9.39;100.00;103507.69;10062973;28;20055;-68
2023/02/14 10:50:51;;;;;;;30.52;19.08;;;;;;;9.31;100.00;103492.53;10075079;28;20509;-68
2023/02/14 10:56:20;;;;;;;26.67;18.17;;;;;;;9.46;100.00;103497.47;10073522;28;20726;-68
2023/02/14 11:01:18;;;;;;;27.58;19.23;;;;;;;9.37;100.00;103493.44;10060870;28;20051;-68
2023/02/14 11:06:14;;;;;;;28.63;19.55;;;;;;;9.08;100.00;103496.13;10077895;28;20047;-68
2023/02/14 11:11:20;;;;;;;27.48;19.20;;;;;;;8.81;100.00;103490.34;10073878;28;20055;-68
2023/02/14 11:16:32;;;;;;;27.83;19.92;;;;;;;8.90;100.00;103493.53;10062222;28;20043;-68
2023/02/14 11:21:37;;;;;;;29.30;19.13;;;;;;;9.48;100.00;103484.41;10069937;28;20077;-66
2023/02/14 11:26:33;;;;;;;31.00;22.20;;;;;;;9.12;100.00;103477.38;10063784;28;20564;-68
2023/02/14 11:31:33;;;;;;;28.30;19.58;;;;;;;9.55;100.00;103463.22;10071176;28;20149;-68
2023/02/14 11:36:32;;;;;;;29.00;20.55;;;;;;;9.54;100.00;103449.81;10080386;28;20141;-68
2023/02/14 11:41:46;;;;;;;28.67;20.60;;;;;;;9.79;100.00;103450.28;10065324;28;20067;-68
2023/02/14 11:46:43;;;;;;;32.05;21.77;;;;;;;9.98;100.00;103439.13;10071625;28;20512;-68
2023/02/14 11:51:49;;;;;;;27.63;19.88;;;;;;;10.20;100.00;103437.31;10069579;28;20073;-68
2023/02/14 11:56:50;;;;;;;29.30;22.33;;;;;;;10.34;100.00;103420.63;10065733;28;20043;-68
2023/02/14 12:01:47;;;;;;;25.27;18.85;;;;;;;10.47;100.00;103414.81;10069583;28;20524;-68
2023/02/14 12:06:44;;;;;;;29.00;19.52;;;;;;;10.68;100.00;103397.59;10070803;28;20505;-68
2023/02/14 12:11:56;;;;;;;26.90;19.17;;;;;;;10.82;100.00;103395.31;10072723;28;20046;-68
2023/02/14 12:17:15;;;;;;;25.38;19.70;;;;;;;11.27;100.00;103387.88;10069694;28;20409;-68
2023/02/14 12:22:15;;;;;;;25.90;18.63;;;;;;;11.65;100.00;103370.47;10070090;28;20126;-68
2023/02/14 12:27:18;;;;;;;25.45;19.05;;;;;;;12.11;100.00;103378.25;10067208;28;20560;-68
2023/02/14 12:32:30;;;;;;;26.05;19.17;;;;;;;12.80;100.00;103369.88;10066952;28;20039;-68
2023/02/14 12:37:45;;;;;;;23.27;17.60;;;;;;;13.15;100.00;103370.25;10057218;28;20073;-68
2023/02/14 12:43:04;;;;;;;26.48;19.13;;;;;;;14.40;100.00;103359.84;10070842;28;20061;-66
2023/02/14 12:48:21;;;;;;;29.95;20.58;;;;;;;15.48;100.00;103349.97;10067926;28;20513;-66
2023/02/14 12:53:33;;;;;;;23.38;18.50;;;;;;;15.97;100.00;103334.41;10051282;28;20130;-68
2023/02/14 12:58:51;;;;;;;26.83;19.88;;;;;;;16.39;100.00;103336.44;10069047;28;20047;-68
2023/02/14 13:04:08;;;;;;;24.50;19.38;;;;;;;16.76;100.00;103317.47;10064625;28;20046;-68
2023/02/14 13:09:25;;;;;;;24.15;19.25;;;;;;;16.89;100.00;103304.88;10069837;28;20150;-68
2023/02/14 13:14:47;;;;;;;23.50;19.77;;;;;;;17.52;100.00;103306.38;10062371;28;20050;-67
2023/02/14 13:20:02;;;;;;;27.58;20.55;;;;;;;16.23;100.00;103309.28;10066571;28;20130;-68
2023/02/14 13:25:04;;;;;;;22.45;19.77;;;;;;;15.14;100.00;103297.56;10069245;28;20051;-67
2023/02/14 13:30:13;;;;;;;24.92;18.90;;;;;;;16.10;100.00;103289.53;10064167;28;20057;-69
2023/02/14 13:35:17;;;;;;;26.52;20.02;;;;;;;14.76;100.00;103280.72;10064258;28;20630;-68
2023/02/14 13:40:22;;;;;;;25.55;19.13;;;;;;;14.72;100.00;103268.63;10061495;28;20150;-68
2023/02/14 13:45:36;;;;;;;25.02;19.30;;;;;;;15.53;100.00;103269.13;10074372;28;20143;-68
2023/02/14 13:50:37;;;;;;;24.02;18.15;;;;;;;15.32;100.00;103269.31;10063605;28;20075;-68
2023/02/14 13:55:41;;;;;;;25.48;19.40;;;;;;;14.68;100.00;103264.78;10067845;28;20047;-68
2023/02/14 14:00:43;;;;;;;29.23;19.77;;;;;;;15.21;100.00;103261.41;10069487;28;20094;-68
2023/02/14 14:05:42;;;;;;;21.73;18.02;;;;;;;15.83;100.00;103261.69;10060389;28;20493;-67
2023/02/14 14:11:01;;;;;;;27.13;18.52;;;;;;;16.32;100.00;103246.78;10068534;28;20070;-68
2023/02/14 14:16:22;;;;;;;24.35;18.48;;;;;;;16.08;100.00;103247.63;10057181;28;20071;-68
2023/02/14 14:21:27;;;;;;;24.15;19.73;;;;;;;15.93;100.00;103250.56;10075038;28;20047;-68
2023/02/14 14:26:34;;;;;;;23.95;19.60;;;;;;;16.55;100.00;103245.94;10073892;28;20055;-68
2023/02/14 14:31:30;;;;;;;24.92;19.42;;;;;;;16.72;100.00;103244.59;10075371;28;20138;-67
2023/02/14 14:36:27;;;;;;;24.75;18.88;;;;;;;16.19;100.00;103243.63;10073197;28;20051;-68
2023/02/14 14:41:28;;;;;;;26.48;18.40;;;;;;;16.31;100.00;103234.09;10068801;28;20051;-68
2023/02/14 14:46:24;;;;;;;24.58;19.60;;;;;;;16.81;100.00;103234.53;10059184;28;20119;-69
2023/02/14 14:51:22;;;;;;;26.20;19.67;;;;;;;16.83;100.00;103229.53;10083926;28;20074;-68
2023/02/14 14:56:24;;;;;;;22.15;17.65;;;;;;;17.18;100.00;103221.81;10070647;28;20118;-68
2023/02/14 15:01:34;;;;;;;20.17;16.70;;;;;;;16.66;100.00;103218.16;10070436;28;20098;-68
2023/02/14 15:06:31;;;;;;;21.52;18.35;;;;;;;14.79;100.00;103221.50;10065830;28;20145;-67
2023/02/14 15:16:49;;;;;;;22.70;18.10;;;;;;;12.85;100.00;103207.88;10073391;28;20501;-67
2023/02/14 15:21:46;;;;;;;23.65;17.92;;;;;;;12.52;100.00;103208.38;10069995;28;20565;-68
2023/02/14 15:26:45;;;;;;;28.05;19.58;;;;;;;11.95;100.00;103210.91;10069045;28;20047;-67
2023/02/14 15:31:42;;;;;;;22.67;18.17;;;;;;;11.50;100.00;103192.22;10067601;28;20081;-67
2023/02/14 15:36:40;;;;;;;24.65;18.20;;;;;;;11.37;100.00;103198.97;10069605;28;20154;-68
2023/02/14 15:41:45;;;;;;;22.73;17.48;;;;;;;11.06;100.00;103198.75;10076251;28;20109;-68
2023/02/14 15:46:41;;;;;;;23.00;16.95;;;;;;;10.88;100.00;103201.84;10070659;28;20145;-68
2023/02/14 15:51:39;;;;;;;30.88;20.80;;;;;;;10.38;100.00;103192.03;10081871;28;20110;-67
2023/02/14 15:56:42;;;;;;;21.88;17.67;;;;;;;10.46;100.00;103194.31;10071654;28;20063;-68
2023/02/14 16:01:39;;;;;;;27.40;20.65;;;;;;;10.11;100.00;103193.59;10067312;28;20048;-67
2023/02/14 16:06:43;;;;;;;31.50;21.83;;;;;;;9.96;100.00;103195.31;10067217;28;21749;-67
2023/02/14 16:11:39;;;;;;;26.15;17.98;;;;;;;9.56;100.00;103190.91;10067969;28;20078;-67
2023/02/14 16:16:55;;;;;;;25.02;20.00;;;;;;;9.47;100.00;103188.63;10055311;28;20051;-67
2023/02/14 16:21:56;;;;;;;27.10;21.30;;;;;;;9.16;100.00;103194.66;10075602;28;20413;-67
2023/02/14 16:26:54;;;;;;;24.17;19.40;;;;;;;9.15;100.00;103190.31;10065843;28;20070;-68
2023/02/14 16:31:53;;;;;;;28.13;18.85;;;;;;;8.99;100.00;103194.66;10060385;28;20051;-67
2023/02/14 16:37:28;;;;;;;25.80;19.75;;;;;;;8.80;100.00;103194.06;10060234;28;20475;-67
2023/02/14 16:42:25;;;;;;;27.48;19.65;;;;;;;8.51;100.00;103196.78;10062945;28;20066;-67
2023/02/14 16:47:22;;;;;;;27.45;20.13;;;;;;;8.46;100.00;103188.50;10066183;28;20051;-67
2023/02/14 16:52:22;;;;;;;24.60;20.42;;;;;;;8.27;100.00;103189.75;10075943;28;20047;-66
2023/02/14 16:57:24;;;;;;;27.80;21.80;;;;;;;8.08;100.00;103194.53;10069861;28;20055;-66
2023/02/14 17:02:26;;;;;;;27.48;20.70;;;;;;;7.98;100.00;103203.28;10060803;28;20043;-66
2023/02/14 17:07:23;;;;;;;33.88;23.88;;;;;;;7.80;100.00;103207.84;10061487;28;20134;-66
2023/02/14 17:12:25;;;;;;;29.20;23.00;;;;;;;7.70;100.00;103204.88;10057453;28;20058;-66
2023/02/14 17:17:22;;;;;;;28.27;22.08;;;;;;;7.63;100.00;103195.16;10067289;28;20461;-67
2023/02/14 17:22:19;;;;;;;30.38;23.88;;;;;;;7.54;100.00;103198.25;10064846;28;20425;-66
2023/02/14 17:27:15;;;;;;;33.20;25.02;;;;;;;7.38;100.00;103199.78;10064754;28;20457;-67
2023/02/14 17:32:12;;;;;;;29.42;23.75;;;;;;;7.24;100.00;103195.63;10071755;28;20058;-67
2023/02/14 17:37:09;;;;;;;35.25;25.33;;;;;;;7.15;100.00;103188.88;10065671;28;20078;-66
2023/02/14 17:42:05;;;;;;;30.20;24.48;;;;;;;7.07;100.00;103202.81;10070503;28;20513;-67
2023/02/14 17:47:03;;;;;;;31.10;23.60;;;;;;;6.87;100.00;103197.66;10071231;28;20043;-66
2023/02/14 17:51:59;;;;;;;32.92;26.02;;;;;;;6.78;100.00;103197.19;10070000;28;20139;-67
2023/02/14 17:56:56;;;;;;;34.17;25.75;;;;;;;6.78;100.00;103194.47;10074273;28;20047;-67
2023/02/14 18:01:52;;;;;;;33.55;26.80;;;;;;;6.76;100.00;103191.16;10066086;28;20165;-67
2023/02/14 18:06:48;;;;;;;39.28;27.83;;;;;;;6.68;100.00;103195.03;10072436;28;20051;-67
2023/02/14 18:11:45;;;;;;;36.30;26.75;;;;;;;6.60;100.00;103192.63;10072244;28;20493;-66
2023/02/14 18:16:42;;;;;;;33.30;26.88;;;;;;;6.56;100.00;103185.16;10072054;28;20501;-67
2023/02/14 18:21:38;;;;;;;33.50;27.88;;;;;;;6.55;100.00;103187.03;10072854;28;20118;-67
2023/02/14 18:26:37;;;;;;;35.03;26.65;;;;;;;6.46;100.00;103181.09;10073392;28;20055;-67
2023/02/14 18:31:35;;;;;;;36.30;27.23;;;;;;;6.36;100.00;103183.53;10075442;28;20418;-67
2023/02/14 18:36:34;;;;;;;35.58;27.75;;;;;;;6.34;100.00;103182.94;10068705;28;20481;-67
2023/02/14 18:41:31;;;;;;;37.38;26.67;;;;;;;6.34;100.00;103177.50;10070173;28;20066;-67
2023/02/14 18:46:34;;;;;;;38.30;25.90;;;;;;;6.38;100.00;103177.84;10075132;28;20521;-66
2023/02/14 18:51:33;;;;;;;33.90;28.55;;;;;;;6.45;100.00;103179.44;10077157;28;20043;-67
2023/02/14 18:56:32;;;;;;;37.10;28.25;;;;;;;6.43;100.00;103178.84;10071346;28;20082;-67
2023/02/14 19:01:31;;;;;;;38.95;27.83;;;;;;;6.42;100.00;103179.06;10072534;28;20051;-66
2023/02/14 19:06:29;;;;;;;35.78;28.02;;;;;;;6.33;100.00;103170.41;10072098;28;20050;-66
2023/02/14 19:11:30;;;;;;;35.72;27.77;;;;;;;6.31;100.00;103177.94;10073225;28;20477;-66
2023/02/14 19:16:30;;;;;;;38.55;30.63;;;;;;;6.19;100.00;103174.34;10067967;28;20110;-66
2023/02/14 19:21:29;;;;;;;38.15;30.17;;;;;;;6.18;100.00;103183.56;10070290;28;20047;-66
2023/02/14 19:26:28;;;;;;;36.67;28.05;;;;;;;6.08;100.00;103174.06;10078077;28;20078;-66
2023/02/14 19:31:25;;;;;;;40.97;30.45;;;;;;;6.02;100.00;103183.09;10073296;28;20048;-66
2023/02/14 19:36:23;;;;;;;36.30;28.45;;;;;;;5.88;100.00;103168.81;10073490;28;20057;-66
2023/02/14 19:41:23;;;;;;;40.25;31.77;;;;;;;5.86;100.00;103178.25;10066777;28;20055;-66
2023/02/14 19:46:20;;;;;;;40.80;31.17;;;;;;;5.78;100.00;103178.53;10064757;28;20078;-67
2023/02/14 19:51:21;;;;;;;46.97;34.22;;;;;;;5.67;100.00;103175.50;10072636;28;20070;-67
2023/02/14 19:56:20;;;;;;;41.03;32.97;;;;;;;5.62;100.00;103174.53;10066284;28;20043;-67
2023/02/14 20:01:29;;;;;;;42.33;32.20;;;;;;;5.53;100.00;103175.88;10072655;28;20113;-66
2023/02/14 20:06:28;;;;;;;43.70;33.28;;;;;;;5.44;100.00;103172.63;10095427;28;20046;-66
2023/02/14 20:11:34;;;;;;;43.92;33.70;;;;;;;5.39;100.00;103181.44;10069072;28;20058;-67
2023/02/14 20:16:33;;;;;;;51.65;35.85;;;;;;;5.39;100.00;103169.75;10060506;28;20968;-67
2023/02/14 20:21:29;;;;;;;45.28;34.47;;;;;;;5.28;100.00;103165.88;10076424;28;20057;-66
2023/02/14 20:26:31;;;;;;;45.60;34.63;;;;;;;5.25;100.00;103163.63;10067681;28;20055;-66
2023/02/14 20:31:27;;;;;;;44.40;34.42;;;;;;;5.15;100.00;103150.56;10058523;28;20499;-67
2023/02/14 20:36:25;;;;;;;49.35;35.70;;;;;;;5.07;100.00;103146.22;10072352;28;20044;-66
2023/02/14 20:41:21;;;;;;;50.17;37.45;;;;;;;5.07;100.00;103145.41;10061095;28;20074;-67
2023/02/14 20:46:18;;;;;;;49.55;38.50;;;;;;;5.02;100.00;103131.69;10069891;28;20453;-67
2023/02/14 20:51:17;;;;;;;48.47;35.35;;;;;;;4.93;100.00;103127.56;10057139;28;20461;-67
2023/02/14 20:56:14;;;;;;;46.97;38.47;;;;;;;4.90;100.00;103128.00;10067468;28;20053;-66
2023/02/14 21:01:13;;;;;;;46.70;36.47;;;;;;;4.82;100.00;103127.22;10070326;28;20049;-66
2023/02/14 21:06:11;;;;;;;49.28;38.05;;;;;;;4.70;100.00;103131.69;10067419;28;20591;-67
2023/02/14 21:11:10;;;;;;;52.58;39.50;;;;;;;4.61;100.00;103114.03;10065944;28;20149;-67
2023/02/14 21:16:15;;;;;;;49.45;38.75;;;;;;;4.49;100.00;103108.50;10060212;28;20046;-65
2023/02/14 21:21:21;;;;;;;56.78;42.83;;;;;;;4.44;100.00;103097.50;10078462;28;20563;-64
2023/02/14 21:26:19;;;;;;;49.83;39.53;;;;;;;4.31;100.00;103109.22;10060593;28;20474;-66
2023/02/14 21:31:19;;;;;;;51.75;41.40;;;;;;;4.34;100.00;103114.22;10062415;28;20082;-66
2023/02/14 21:36:19;;;;;;;54.00;40.78;;;;;;;4.31;100.00;103114.63;10071349;28;20528;-66
2023/02/14 21:41:23;;;;;;;51.70;40.92;;;;;;;4.25;100.00;103126.34;10071039;28;20047;-66
2023/02/14 21:46:29;;;;;;;48.63;39.17;;;;;;;4.24;100.00;103118.44;10065052;28;20047;-66
2023/02/14 21:51:33;;;;;;;53.47;40.60;;;;;;;4.10;100.00;103106.84;10071765;28;20486;-66
2023/02/14 21:56:34;;;;;;;58.58;42.55;;;;;;;4.03;100.00;103100.63;10066717;28;20172;-66
2023/02/14 22:01:39;;;;;;;59.25;41.65;;;;;;;3.91;100.00;103106.72;10079854;28;20055;-64
2023/02/14 22:06:39;;;;;;;50.83;38.83;;;;;;;3.87;100.00;103091.13;10070884;28;20059;-65
2023/02/14 22:11:38;;;;;;;58.65;44.78;;;;;;;3.84;100.00;103091.56;10067893;28;20053;-65
2023/02/14 22:16:35;;;;;;;58.97;42.63;;;;;;;3.78;100.00;103090.50;10076189;28;20085;-66
2023/02/14 22:21:43;;;;;;;67.60;46.17;;;;;;;3.74;100.00;103086.59;10080086;28;20050;-66
2023/02/14 22:26:42;;;;;;;55.30;41.53;;;;;;;3.75;100.00;103080.13;10069865;28;20069;-66
2023/02/14 22:31:47;;;;;;;57.37;42.83;;;;;;;3.68;100.00;103076.63;10077856;28;20716;-65
2023/02/14 22:36:47;;;;;;;55.78;42.47;;;;;;;3.81;100.00;103082.00;10078237;28;20047;-66
2023/02/14 22:41:49;;;;;;;62.15;42.13;;;;;;;3.91;100.00;103081.53;10079991;28;20873;-66
2023/02/14 22:46:57;;;;;;;60.17;41.20;;;;;;;3.98;100.00;103074.19;10067926;28;20260;-66
2023/02/14 22:52:15;;;;;;;57.22;40.35;;;;;;;4.08;100.00;103071.03;10087945;28;20055;-65
2023/02/14 22:57:14;;;;;;;56.55;38.95;;;;;;;4.10;100.00;103074.34;10070736;28;20510;-64